Time;durP1;ratioP1;P1;durP2;ratioP2;P2;SDS_P1;SDS_P2;PMS_P1;PMS_P2;Temp;Humidity;BMP_temperature;BMP_pressure;BME280_temperature;BME280_humidity;BME280_pressure;Samples;Min_cycle;Max_cycle;Signal;HPM_P1;HPM_P2
2022/12/14 00:01:36;;;;;;;15.17;9.70;;;;;;;2.77;100.00;94141.91;5093579;28;20658;-52
2022/12/14 00:04:01;;;;;;;16.77;9.63;;;;;;;2.68;100.00;94162.53;5093322;28;20216;-53
2022/12/14 00:06:31;;;;;;;18.73;10.27;;;;;;;2.73;100.00;94142.97;5093738;28;20330;-54
2022/12/14 00:09:00;;;;;;;17.17;9.33;;;;;;;2.70;100.00;94138.94;5093381;28;20179;-53
2022/12/14 00:11:26;;;;;;;13.97;9.33;;;;;;;2.88;100.00;94147.03;5093329;28;20192;-54
2022/12/14 00:13:56;;;;;;;16.67;9.63;;;;;;;2.94;100.00;94154.16;5093206;28;20294;-53
2022/12/14 00:16:23;;;;;;;17.33;9.80;;;;;;;2.84;100.00;94155.66;5093276;28;20192;-53
2022/12/14 00:18:51;;;;;;;16.97;9.00;;;;;;;2.83;100.00;94152.31;5075147;28;20192;-55
2022/12/14 00:21:17;;;;;;;12.70;9.40;;;;;;;2.85;100.00;94158.06;5074722;28;20235;-55
2022/12/14 00:23:44;;;;;;;13.07;8.87;;;;;;;2.62;100.00;94158.69;5092986;28;20215;-55
2022/12/14 00:26:20;;;;;;;14.77;8.00;;;;;;;2.50;100.00;94141.91;5093141;28;20243;-55
2022/12/14 00:28:48;;;;;;;12.83;8.40;;;;;;;2.68;100.00;94160.00;5074877;28;20611;-52
2022/12/14 00:31:14;;;;;;;12.93;8.13;;;;;;;2.63;100.00;94147.75;5093284;28;20198;-54
2022/12/14 00:33:40;;;;;;;15.00;8.60;;;;;;;2.59;100.00;94151.34;5092777;28;20212;-52
2022/12/14 00:36:07;;;;;;;15.40;8.50;;;;;;;2.58;100.00;94139.72;5092644;28;20207;-53
2022/12/14 00:38:33;;;;;;;10.80;6.93;;;;;;;2.38;100.00;94160.22;5092740;28;20203;-55
2022/12/14 00:40:59;;;;;;;13.00;7.23;;;;;;;2.20;100.00;94116.97;5092621;28;20587;-56
2022/12/14 00:43:24;;;;;;;12.87;7.33;;;;;;;2.15;100.00;94120.69;5092776;28;20188;-56
2022/12/14 00:45:50;;;;;;;11.50;7.63;;;;;;;1.99;100.00;94125.00;5092567;28;20219;-53
2022/12/14 00:48:17;;;;;;;11.47;6.63;;;;;;;2.02;100.00;94132.34;5092635;28;20188;-53
2022/12/14 00:50:44;;;;;;;12.37;7.57;;;;;;;2.11;100.00;94125.09;5092858;28;20204;-56
2022/12/14 00:53:10;;;;;;;12.30;7.53;;;;;;;2.03;100.00;94144.78;5092392;28;20212;-54
2022/12/14 00:55:38;;;;;;;10.40;7.10;;;;;;;2.07;100.00;94150.41;5092606;28;20214;-56
2022/12/14 00:58:04;;;;;;;8.77;6.00;;;;;;;2.04;100.00;94151.41;5092759;28;20184;-55
2022/12/14 01:00:29;;;;;;;10.73;6.17;;;;;;;2.29;100.00;94160.75;5092313;28;20599;-55
2022/12/14 01:02:55;;;;;;;9.73;6.10;;;;;;;2.13;100.00;94162.56;5092464;28;20650;-52
2022/12/14 01:05:20;;;;;;;9.53;5.47;;;;;;;2.20;100.00;94153.81;5092311;28;20208;-53
2022/12/14 01:07:45;;;;;;;8.27;4.87;;;;;;;2.10;100.00;94143.50;5092323;28;20254;-53
2022/12/14 01:10:11;;;;;;;8.57;5.67;;;;;;;1.92;100.00;94123.78;5092376;28;20208;-55
2022/12/14 01:12:36;;;;;;;8.97;5.43;;;;;;;1.93;100.00;94140.41;5074035;28;20212;-55
2022/12/14 01:15:02;;;;;;;8.70;5.43;;;;;;;2.00;100.00;94134.16;5092277;28;20211;-55
2022/12/14 01:17:27;;;;;;;9.20;5.53;;;;;;;1.98;100.00;94138.44;5091485;28;20260;-54
2022/12/14 01:19:53;;;;;;;8.13;4.87;;;;;;;1.95;100.00;94141.13;5091876;28;20216;-52
2022/12/14 01:22:19;;;;;;;8.23;4.83;;;;;;;1.93;100.00;94151.25;5092136;28;20183;-55
2022/12/14 01:24:44;;;;;;;8.93;5.30;;;;;;;1.93;100.00;94155.44;5092270;28;20211;-54
2022/12/14 01:27:09;;;;;;;7.43;4.93;;;;;;;1.97;100.00;94146.84;5091785;28;20188;-53
2022/12/14 01:29:35;;;;;;;6.27;4.37;;;;;;;1.85;100.00;94137.56;5091587;28;20236;-54
2022/12/14 01:32:01;;;;;;;6.70;4.63;;;;;;;1.78;100.00;94143.84;5092000;28;20206;-53
2022/12/14 01:34:26;;;;;;;9.50;5.20;;;;;;;1.73;100.00;94139.09;5091952;28;20286;-53
2022/12/14 01:36:52;;;;;;;9.60;5.97;;;;;;;1.79;100.00;94135.41;5073071;28;20192;-54
2022/12/14 01:39:17;;;;;;;9.17;6.13;;;;;;;1.84;100.00;94130.94;5091726;28;20292;-54
2022/12/14 01:41:44;;;;;;;7.17;4.63;;;;;;;1.69;100.00;94128.47;5091715;28;20184;-56
2022/12/14 01:44:09;;;;;;;11.43;6.70;;;;;;;1.68;100.00;94116.00;5091693;28;20721;-55
2022/12/14 01:46:35;;;;;;;8.00;5.77;;;;;;;1.64;100.00;94112.88;5091898;28;20192;-56
2022/12/14 01:49:29;;;;;;;8.37;5.17;;;;;;;1.79;100.00;94111.19;5073358;28;20230;-55
2022/12/14 01:52:21;;;;;;;8.90;5.23;;;;;;;1.87;100.00;94115.72;5091133;28;20210;-52
2022/12/14 01:54:56;;;;;;;8.53;4.87;;;;;;;1.62;100.00;94112.16;5091264;28;20215;-52
2022/12/14 01:57:30;;;;;;;9.53;5.23;;;;;;;1.45;100.00;94104.03;5091668;28;20332;-55
2022/12/14 01:59:57;;;;;;;8.80;5.40;;;;;;;1.52;100.00;94111.09;5091679;28;20282;-52
2022/12/14 02:02:24;;;;;;;8.70;5.67;;;;;;;1.54;100.00;94106.81;5091254;28;20195;-55
2022/12/14 02:04:58;;;;;;;5.93;4.37;;;;;;;1.45;100.00;94114.88;5091430;28;20210;-52
2022/12/14 02:07:27;;;;;;;7.17;4.57;;;;;;;1.11;100.00;94031.81;5091338;28;20256;-52
2022/12/14 02:09:55;;;;;;;9.93;4.97;;;;;;;1.63;100.00;94103.78;5091477;28;20204;-52
2022/12/14 02:12:28;;;;;;;7.90;4.97;;;;;;;1.45;100.00;94099.84;5091183;28;20207;-53
2022/12/14 02:14:54;;;;;;;8.97;5.03;;;;;;;1.37;100.00;94099.50;5091284;28;20208;-52
2022/12/14 02:17:20;;;;;;;9.17;5.93;;;;;;;1.54;100.00;94108.50;5091356;28;20179;-54
2022/12/14 02:19:48;;;;;;;10.13;5.57;;;;;;;1.65;100.00;94101.16;5091055;28;20585;-52
2022/12/14 02:22:25;;;;;;;7.10;4.83;;;;;;;1.68;100.00;94111.81;5091056;28;20696;-55
2022/12/14 02:25:28;;;;;;;7.87;4.60;;;;;;;1.55;100.00;94103.41;5091272;28;20253;-55
2022/12/14 02:28:31;;;;;;;8.03;4.97;;;;;;;1.36;100.00;94089.53;5091177;28;20604;-52
2022/12/14 02:31:04;;;;;;;7.87;5.17;;;;;;;1.40;100.00;94085.97;5091034;28;20225;-56
2022/12/14 02:33:52;;;;;;;7.83;4.30;;;;;;;1.54;100.00;94089.28;5091011;28;20707;-55
2022/12/14 02:36:27;;;;;;;6.87;4.53;;;;;;;1.59;100.00;94089.81;5091108;28;20294;-56
2022/12/14 02:39:03;;;;;;;8.20;4.17;;;;;;;1.72;100.00;94111.63;5090530;28;20180;-55
2022/12/14 02:41:49;;;;;;;6.47;4.27;;;;;;;1.67;100.00;94106.91;5090816;28;20200;-55
2022/12/14 02:44:29;;;;;;;6.00;4.63;;;;;;;1.80;100.00;94106.97;5072848;28;20315;-56
2022/12/14 02:47:01;;;;;;;7.73;4.50;;;;;;;1.53;100.00;94076.84;5090939;28;20191;-52
2022/12/14 02:49:30;;;;;;;7.70;5.00;;;;;;;1.52;100.00;94081.06;5089706;28;20218;-53
2022/12/14 02:52:06;;;;;;;6.23;4.53;;;;;;;1.59;100.00;94058.97;5090795;28;20299;-52
2022/12/14 02:54:48;;;;;;;7.37;4.83;;;;;;;1.89;100.00;94086.38;5090794;28;20628;-53
2022/12/14 02:57:25;;;;;;;8.53;5.00;;;;;;;1.91;100.00;94089.59;5090826;28;20267;-52
2022/12/14 02:59:55;;;;;;;15.13;5.23;;;;;;;1.90;100.00;94115.56;5090644;28;20208;-52
2022/12/14 03:02:20;;;;;;;8.33;4.57;;;;;;;2.02;100.00;94109.81;5090676;28;20310;-53
2022/12/14 03:04:47;;;;;;;6.33;4.50;;;;;;;2.04;100.00;94108.78;5090586;28;20218;-53
2022/12/14 03:07:39;;;;;;;8.13;5.10;;;;;;;1.65;100.00;94096.16;5090535;28;20270;-52
2022/12/14 03:10:22;;;;;;;8.80;4.97;;;;;;;1.88;100.00;94097.31;5090823;28;20218;-53
2022/12/14 03:13:00;;;;;;;11.03;5.17;;;;;;;1.91;100.00;94097.09;5090877;28;20243;-54
2022/12/14 03:15:28;;;;;;;9.53;5.63;;;;;;;1.84;100.00;94098.38;5072368;28;20225;-53
2022/12/14 03:17:58;;;;;;;8.47;5.33;;;;;;;2.13;100.00;94123.28;5090388;28;20237;-52
2022/12/14 03:20:27;;;;;;;11.73;7.67;;;;;;;2.03;100.00;94128.94;5090469;28;20227;-52
2022/12/14 03:22:55;;;;;;;12.93;7.30;;;;;;;2.04;100.00;94113.81;5090429;28;20188;-54
2022/12/14 03:25:27;;;;;;;15.03;8.53;;;;;;;2.06;100.00;94121.25;5090687;28;20235;-54
2022/12/14 03:28:01;;;;;;;14.57;8.60;;;;;;;2.05;100.00;94109.59;5090441;28;20217;-55
2022/12/14 03:30:29;;;;;;;15.77;8.43;;;;;;;2.14;100.00;94109.06;5090567;28;20216;-53
2022/12/14 03:33:01;;;;;;;16.70;8.47;;;;;;;2.05;100.00;94090.38;5090201;28;20239;-52
2022/12/14 03:35:49;;;;;;;12.93;8.00;;;;;;;2.08;100.00;94089.38;5090628;28;20213;-52
2022/12/14 03:38:27;;;;;;;12.73;6.60;;;;;;;2.23;100.00;94114.31;5090530;28;20631;-55
2022/12/14 03:41:13;;;;;;;12.03;7.27;;;;;;;2.16;100.00;94092.22;5090477;28;20241;-52
2022/12/14 03:44:00;;;;;;;10.87;6.57;;;;;;;2.13;100.00;94102.41;5090152;28;20184;-53
2022/12/14 03:46:38;;;;;;;9.30;6.70;;;;;;;2.10;100.00;94100.91;5090471;28;20215;-52
2022/12/14 03:49:12;;;;;;;12.23;6.00;;;;;;;2.09;100.00;94123.56;5090079;28;20234;-55
2022/12/14 03:51:48;;;;;;;8.90;5.87;;;;;;;2.17;100.00;94151.47;5090040;28;20684;-53
2022/12/14 03:54:20;;;;;;;9.27;5.80;;;;;;;2.37;100.00;94153.56;5089955;28;20229;-52
2022/12/14 03:56:51;;;;;;;7.97;5.53;;;;;;;2.30;100.00;94125.56;5090071;28;20200;-54
2022/12/14 03:59:47;;;;;;;10.80;6.43;;;;;;;2.21;100.00;94120.31;5089936;28;20583;-55
2022/12/14 04:02:32;;;;;;;9.07;6.00;;;;;;;2.17;100.00;94123.91;5084806;28;20196;-53
2022/12/14 04:05:32;;;;;;;10.70;6.07;;;;;;;2.17;100.00;94149.78;5092464;28;20693;-53
2022/12/14 04:08:09;;;;;;;9.90;6.07;;;;;;;2.29;100.00;94164.06;5093442;28;20321;-55
2022/12/14 04:19:18;;;;;;;6.93;5.03;;;;;;;2.58;100.00;94172.34;5093033;28;20276;-55
2022/12/14 04:21:55;;;;;;;7.33;5.37;;;;;;;2.32;100.00;94128.78;5093415;28;20187;-53
2022/12/14 04:27:52;;;;;;;9.37;5.73;;;;;;;2.44;100.00;94129.75;5054221;28;20584;-55
2022/12/14 04:30:18;;;;;;;6.63;4.80;;;;;;;2.38;100.00;94155.97;5092825;28;20210;-56
2022/12/14 04:33:45;;;;;;;8.23;4.50;;;;;;;2.35;100.00;94152.84;5093025;28;20214;-53
2022/12/14 04:35:48;;;;;;;6.83;4.70;;;;;;;2.35;100.00;94152.84;5093281;28;20755;-56
2022/12/14 04:38:18;;;;;;;5.33;3.70;;;;;;;2.30;100.00;94139.81;5092884;28;20214;-55
2022/12/14 04:41:02;;;;;;;6.20;4.40;;;;;;;2.33;100.00;94149.63;5093335;28;20207;-56
2022/12/14 04:43:34;;;;;;;6.33;4.40;;;;;;;2.23;100.00;94133.53;5093116;28;20191;-55
2022/12/14 04:46:07;;;;;;;6.63;4.50;;;;;;;2.07;100.00;94138.69;5093107;28;20222;-54
2022/12/14 04:48:50;;;;;;;6.83;4.07;;;;;;;2.13;100.00;94160.88;5074509;28;20654;-53
2022/12/14 04:51:31;;;;;;;4.40;3.57;;;;;;;2.17;100.00;94149.78;5092599;28;20192;-53
2022/12/14 04:54:09;;;;;;;6.40;4.20;;;;;;;2.13;100.00;94127.47;5093021;28;20196;-54
2022/12/14 04:56:48;;;;;;;5.47;4.20;;;;;;;2.56;100.00;94189.19;5092721;28;20604;-53
2022/12/14 04:59:14;;;;;;;5.70;4.23;;;;;;;2.56;100.00;94192.47;5092359;28;20208;-53
2022/12/14 05:01:49;;;;;;;5.77;3.97;;;;;;;2.70;100.00;94199.16;5092385;28;20195;-53
2022/12/14 05:04:24;;;;;;;10.20;4.83;;;;;;;2.77;100.00;94205.41;5092222;28;20276;-53
2022/12/14 05:07:15;;;;;;;6.60;4.53;;;;;;;2.37;100.00;94181.16;5092149;28;20608;-56
2022/12/14 05:09:54;;;;;;;7.33;4.13;;;;;;;2.46;100.00;94171.34;5092517;28;20200;-52
2022/12/14 05:12:40;;;;;;;9.20;6.77;;;;;;;4.16;100.00;94085.66;5091382;28;20208;-57
2022/12/14 05:15:10;;;;;;;9.07;6.00;;;;;;;4.47;100.00;94084.31;5092227;28;20211;-56
2022/12/14 05:17:38;;;;;;;7.50;4.77;;;;;;;4.05;100.00;94114.06;5074339;28;20224;-57
2022/12/14 05:20:04;;;;;;;7.43;4.77;;;;;;;4.05;100.00;94238.97;5092289;28;20357;-56
2022/12/14 05:22:29;;;;;;;6.23;4.23;;;;;;;4.03;100.00;94255.88;5092213;28;20184;-56
2022/12/14 05:24:55;;;;;;;6.20;4.47;;;;;;;3.70;100.00;94235.44;5092248;28;20264;-57
2022/12/14 05:27:20;;;;;;;6.13;4.03;;;;;;;3.46;100.00;94234.50;5092117;28;20195;-56
2022/12/14 05:29:46;;;;;;;7.40;4.47;;;;;;;3.51;100.00;94197.34;5092048;28;20220;-57
2022/12/14 05:32:12;;;;;;;6.37;4.53;;;;;;;3.34;100.00;94216.81;5092172;28;20370;-56
2022/12/14 05:34:38;;;;;;;7.97;4.53;;;;;;;3.30;100.00;94230.47;5092225;28;20220;-55
2022/12/14 05:37:03;;;;;;;6.07;4.30;;;;;;;3.12;100.00;94255.94;5073875;28;20192;-56
2022/12/14 05:39:29;;;;;;;6.50;4.20;;;;;;;3.14;100.00;94239.88;5092205;28;20220;-57
2022/12/14 05:41:55;;;;;;;5.27;4.40;;;;;;;3.19;100.00;94249.63;5091799;28;20192;-54
2022/12/14 05:44:20;;;;;;;5.10;3.97;;;;;;;3.14;100.00;94234.03;5091667;28;20216;-57
2022/12/14 05:46:46;;;;;;;6.70;4.77;;;;;;;3.21;100.00;94215.97;5091954;28;20241;-57
2022/12/14 05:49:11;;;;;;;6.63;4.83;;;;;;;3.34;100.00;94241.13;5091842;28;20211;-56
2022/12/14 05:51:37;;;;;;;6.13;4.73;;;;;;;3.09;100.00;94191.66;5091999;28;20202;-57
2022/12/14 05:54:02;;;;;;;6.57;4.83;;;;;;;2.95;100.00;94165.81;5091226;28;20349;-59
2022/12/14 05:56:28;;;;;;;6.83;4.83;;;;;;;2.89;100.00;94184.56;5091514;28;20257;-56
2022/12/14 05:58:53;;;;;;;5.97;4.60;;;;;;;2.80;100.00;94166.78;5091258;28;20194;-57
2022/12/14 06:01:19;;;;;;;11.00;6.63;;;;;;;2.74;100.00;94208.13;5073378;28;20191;-57
2022/12/14 06:03:45;;;;;;;6.33;4.80;;;;;;;2.69;100.00;94171.69;5091161;28;20207;-56
2022/12/14 06:06:12;;;;;;;8.93;5.67;;;;;;;2.63;100.00;94157.78;5091008;28;20685;-56
2022/12/14 06:08:41;;;;;;;9.77;6.00;;;;;;;2.59;100.00;94138.03;5090994;28;20286;-56
2022/12/14 06:11:11;;;;;;;9.57;6.40;;;;;;;2.58;100.00;94117.16;5091090;28;20272;-56
2022/12/14 06:13:38;;;;;;;9.27;6.03;;;;;;;2.64;100.00;94144.34;5091014;28;20743;-55
2022/12/14 06:16:15;;;;;;;8.27;5.97;;;;;;;2.72;100.00;94137.16;5090812;28;20287;-57
2022/12/14 06:18:53;;;;;;;12.30;6.40;;;;;;;2.73;100.00;94143.75;5072481;28;20222;-56
2022/12/14 06:21:21;;;;;;;12.43;6.87;;;;;;;2.63;100.00;94150.25;5091066;28;20223;-58
2022/12/14 06:23:47;;;;;;;9.63;6.77;;;;;;;2.79;100.00;94120.78;5090569;28;20187;-55
2022/12/14 06:26:14;;;;;;;7.80;6.10;;;;;;;2.88;100.00;94147.03;5091429;28;20184;-57
2022/12/14 06:28:39;;;;;;;10.03;6.97;;;;;;;2.80;100.00;94152.53;5090910;28;20238;-55
2022/12/14 06:31:05;;;;;;;9.03;6.53;;;;;;;2.67;100.00;94183.50;5090555;28;20637;-55
2022/12/14 06:33:33;;;;;;;7.93;5.80;;;;;;;2.60;100.00;94187.28;5071732;28;20774;-56
2022/12/14 06:36:00;;;;;;;9.17;6.20;;;;;;;2.82;100.00;94144.91;5090793;28;20269;-55
2022/12/14 06:38:25;;;;;;;16.60;8.80;;;;;;;5.35;100.00;94162.72;5071268;28;20640;-55
2022/12/14 06:40:51;;;;;;;11.57;8.30;;;;;;;5.91;100.00;94168.66;5089399;28;20364;-58
2022/12/14 06:43:16;;;;;;;12.17;6.40;;;;;;;5.07;100.00;94252.03;5089926;28;20326;-57
2022/12/14 06:45:42;;;;;;;13.67;6.10;;;;;;;4.84;100.00;94327.56;5090915;28;20658;-55
2022/12/14 06:48:07;;;;;;;11.47;6.17;;;;;;;4.19;100.00;94244.72;5091299;28;20593;-56
2022/12/14 06:50:32;;;;;;;8.50;5.97;;;;;;;3.74;100.00;94199.97;5091309;28;20642;-55
2022/12/14 06:52:58;;;;;;;10.20;6.20;;;;;;;3.61;100.00;94228.50;5090880;28;20597;-56
2022/12/14 06:55:24;;;;;;;10.10;6.90;;;;;;;3.20;100.00;94201.81;5090647;28;20690;-56
2022/12/14 06:57:50;;;;;;;13.83;7.73;;;;;;;3.18;100.00;94192.78;5090899;28;20188;-55
2022/12/14 07:00:18;;;;;;;10.43;6.40;;;;;;;2.91;100.00;94182.75;5090773;28;20567;-55
2022/12/14 07:02:43;;;;;;;10.63;6.80;;;;;;;2.81;100.00;94168.41;5090745;28;20236;-55
2022/12/14 07:05:09;;;;;;;10.20;6.37;;;;;;;2.78;100.00;94194.47;5090433;28;20254;-54
2022/12/14 07:07:35;;;;;;;12.40;6.67;;;;;;;2.82;100.00;94195.91;5090338;28;20191;-55
2022/12/14 07:10:02;;;;;;;8.77;6.53;;;;;;;2.79;100.00;94188.53;5089973;28;20219;-55
2022/12/14 07:12:27;;;;;;;12.93;7.90;;;;;;;2.77;100.00;94199.59;5088841;28;20218;-56
2022/12/14 07:14:53;;;;;;;12.10;7.93;;;;;;;2.90;100.00;94225.53;5089631;28;20207;-55
2022/12/14 07:17:19;;;;;;;9.50;6.97;;;;;;;2.92;100.00;94196.94;5090474;28;20536;-56
2022/12/14 07:19:45;;;;;;;13.50;7.70;;;;;;;2.78;100.00;94164.38;5090679;28;20212;-57
2022/12/14 07:22:10;;;;;;;13.00;7.67;;;;;;;2.93;100.00;94201.03;5090528;28;20184;-57
2022/12/14 07:24:36;;;;;;;11.60;7.53;;;;;;;2.87;100.00;94208.94;5090596;28;20739;-59
2022/12/14 07:27:02;;;;;;;14.27;7.90;;;;;;;2.80;100.00;94180.13;5072405;28;20670;-57
2022/12/14 07:29:27;;;;;;;14.07;8.47;;;;;;;2.71;100.00;94205.00;5090349;28;20235;-54
2022/12/14 07:31:53;;;;;;;14.27;8.33;;;;;;;2.83;100.00;94182.44;5090448;28;20195;-55
2022/12/14 07:34:19;;;;;;;13.17;7.30;;;;;;;2.89;100.00;94186.28;5090704;28;20217;-56
2022/12/14 07:36:47;;;;;;;11.27;8.47;;;;;;;2.95;100.00;94199.25;5093389;28;20208;-59
2022/12/14 07:39:16;;;;;;;12.63;8.33;;;;;;;2.97;100.00;94186.63;5094156;28;20204;-58
2022/12/14 07:41:42;;;;;;;9.97;7.67;;;;;;;3.02;100.00;94203.00;5093782;28;20592;-58
2022/12/14 07:44:08;;;;;;;13.23;7.83;;;;;;;2.88;100.00;94238.19;5075854;28;20208;-58
2022/12/14 07:46:34;;;;;;;12.43;8.33;;;;;;;2.55;100.00;94192.56;5093821;28;20622;-57
2022/12/14 07:49:00;;;;;;;13.93;7.87;;;;;;;2.62;100.00;94191.31;5093789;28;20222;-57
2022/12/14 07:51:29;;;;;;;10.80;7.23;;;;;;;2.82;100.00;94192.56;5094077;28;20187;-58
2022/12/14 07:53:55;;;;;;;12.87;7.90;;;;;;;2.76;100.00;94190.44;5093402;28;20211;-60
2022/12/14 07:56:27;;;;;;;13.57;9.10;;;;;;;2.82;100.00;94170.81;5093825;28;20180;-60
2022/12/14 07:58:57;;;;;;;13.83;8.47;;;;;;;2.77;100.00;94233.00;5093001;28;20336;-58
2022/12/14 08:01:35;;;;;;;14.67;8.10;;;;;;;2.57;100.00;94173.22;5091495;28;20188;-57
2022/12/14 08:04:04;;;;;;;11.30;7.90;;;;;;;2.70;100.00;94175.78;5091472;28;20192;-56
2022/12/14 08:06:31;;;;;;;13.03;9.00;;;;;;;2.80;100.00;94179.31;5092759;28;20195;-57
2022/12/14 08:08:57;;;;;;;12.47;7.87;;;;;;;2.74;100.00;94205.59;5093395;28;20234;-56
2022/12/14 08:11:23;;;;;;;14.40;8.70;;;;;;;2.75;100.00;94207.19;5093466;28;20645;-57
2022/12/14 08:13:59;;;;;;;19.03;9.80;;;;;;;2.73;100.00;94178.88;5093256;28;20583;-56
2022/12/14 08:16:25;;;;;;;16.70;8.50;;;;;;;2.86;100.00;94197.31;5093432;28;20236;-55
2022/12/14 08:18:55;;;;;;;15.83;9.50;;;;;;;2.94;100.00;94205.19;5093457;28;20186;-58
2022/12/14 08:21:23;;;;;;;21.60;10.60;;;;;;;2.93;100.00;94220.34;5093344;28;20244;-56
2022/12/14 08:23:50;;;;;;;14.43;8.50;;;;;;;3.12;100.00;94225.81;5075051;28;20194;-57
2022/12/14 08:26:16;;;;;;;11.50;7.30;;;;;;;3.06;100.00;94237.03;5093645;28;20194;-56
2022/12/14 08:28:42;;;;;;;9.97;7.17;;;;;;;2.97;100.00;94237.59;5093336;28;20755;-55
2022/12/14 08:31:13;;;;;;;13.67;7.47;;;;;;;3.24;100.00;94252.66;5074932;28;20616;-58
2022/12/14 08:33:40;;;;;;;13.37;7.90;;;;;;;3.42;100.00;94242.25;5093046;28;20677;-55
2022/12/14 08:36:07;;;;;;;14.17;8.00;;;;;;;3.51;100.00;94252.63;5093083;28;20214;-55
2022/12/14 08:38:32;;;;;;;10.40;7.43;;;;;;;3.66;100.00;94271.72;5093003;28;20230;-56
2022/12/14 08:41:10;;;;;;;15.17;9.40;;;;;;;3.69;100.00;94279.91;5093518;28;20208;-55
2022/12/14 08:43:35;;;;;;;17.07;9.00;;;;;;;3.71;100.00;94300.69;5093220;28;20178;-55
2022/12/14 08:46:01;;;;;;;15.70;8.07;;;;;;;3.43;100.00;94276.50;5093082;28;20208;-58
2022/12/14 08:48:27;;;;;;;14.80;8.60;;;;;;;3.25;100.00;94252.56;5092697;28;20177;-58
2022/12/14 08:50:53;;;;;;;15.27;8.83;;;;;;;2.86;100.00;94219.09;5073736;28;20212;-58
2022/12/14 08:53:19;;;;;;;16.50;10.03;;;;;;;3.00;100.00;94212.31;5090505;28;20210;-56
2022/12/14 08:55:44;;;;;;;16.87;9.87;;;;;;;3.04;100.00;94217.94;5090533;28;20291;-57
2022/12/14 08:58:10;;;;;;;14.30;8.90;;;;;;;3.28;100.00;94269.13;5091980;28;20187;-58
2022/12/14 09:00:37;;;;;;;13.87;9.33;;;;;;;3.11;100.00;94230.00;5092679;28;20207;-57
2022/12/14 09:03:05;;;;;;;13.73;9.00;;;;;;;3.20;100.00;94196.81;5092563;28;20195;-58
2022/12/14 09:05:31;;;;;;;11.47;7.70;;;;;;;3.33;100.00;94214.41;5074711;28;20273;-56
2022/12/14 09:07:56;;;;;;;13.87;7.93;;;;;;;3.48;100.00;94217.63;5092451;28;20185;-55
2022/12/14 09:10:22;;;;;;;16.17;8.53;;;;;;;3.68;100.00;94249.81;5092768;28;20235;-55
2022/12/14 09:12:47;;;;;;;13.47;7.43;;;;;;;3.63;100.00;94214.94;5092224;28;20621;-57
2022/12/14 09:15:14;;;;;;;13.77;7.47;;;;;;;3.63;100.00;94206.59;5092365;28;20212;-55
2022/12/14 09:17:39;;;;;;;14.10;7.40;;;;;;;3.71;100.00;94234.56;5092189;28;20188;-54
2022/12/14 09:20:05;;;;;;;12.40;7.97;;;;;;;3.87;100.00;94230.94;5092133;28;20582;-56
2022/12/14 09:22:31;;;;;;;17.40;8.00;;;;;;;3.89;100.00;94228.31;5090115;28;20568;-56
2022/12/14 09:24:56;;;;;;;12.10;7.37;;;;;;;3.90;100.00;94188.00;5071673;28;20307;-56
2022/12/14 09:27:22;;;;;;;11.33;6.57;;;;;;;3.92;100.00;94226.41;5091451;28;20721;-58
2022/12/14 09:29:49;;;;;;;11.17;7.53;;;;;;;4.05;100.00;94228.91;5073860;28;20214;-57
2022/12/14 09:32:15;;;;;;;8.50;5.77;;;;;;;4.09;100.00;94220.25;5091766;28;20236;-57
2022/12/14 09:34:40;;;;;;;10.33;6.17;;;;;;;4.12;100.00;94199.97;5092038;28;20210;-57
2022/12/14 09:37:06;;;;;;;10.20;6.43;;;;;;;4.26;100.00;94248.41;5091870;28;20660;-58
2022/12/14 09:39:32;;;;;;;11.93;6.73;;;;;;;4.23;100.00;94217.63;5091819;28;20770;-58
2022/12/14 09:42:18;;;;;;;10.47;7.03;;;;;;;4.08;100.00;94219.44;5091740;28;20178;-58
2022/12/14 09:44:59;;;;;;;10.13;6.60;;;;;;;3.84;100.00;94217.75;5092053;28;20226;-57
2022/12/14 09:47:48;;;;;;;10.33;6.23;;;;;;;3.75;100.00;94185.69;5073832;28;20186;-57
2022/12/14 09:50:18;;;;;;;11.63;6.60;;;;;;;3.89;100.00;94173.03;5091618;28;20738;-57
2022/12/14 09:52:50;;;;;;;9.80;6.70;;;;;;;4.04;100.00;94187.09;5091575;28;20206;-58
2022/12/14 09:55:21;;;;;;;9.50;5.77;;;;;;;4.14;100.00;94214.00;5090945;28;20205;-56
2022/12/14 09:57:52;;;;;;;11.50;6.63;;;;;;;4.15;100.00;94209.78;5088561;28;20218;-58
2022/12/14 10:00:19;;;;;;;11.63;7.67;;;;;;;4.01;100.00;94204.88;5089448;28;20205;-59
2022/12/14 10:02:59;;;;;;;10.77;6.43;;;;;;;4.19;100.00;94212.00;5090484;28;20194;-57
2022/12/14 10:06:02;;;;;;;11.90;6.87;;;;;;;4.33;100.00;94260.56;5091864;28;20223;-55
2022/12/14 10:08:37;;;;;;;15.07;6.77;;;;;;;3.69;100.00;94242.19;5091567;28;20230;-56
2022/12/14 10:11:26;;;;;;;17.03;6.20;;;;;;;3.39;100.00;94178.84;5091898;28;20295;-58
2022/12/14 10:14:10;;;;;;;12.00;5.57;;;;;;;3.46;100.00;94164.16;5091234;28;20207;-57
2022/12/14 10:17:09;;;;;;;8.97;5.50;;;;;;;3.51;100.00;94147.09;5091564;28;20199;-56
2022/12/14 10:19:51;;;;;;;9.77;5.23;;;;;;;3.72;100.00;94168.28;5091396;28;20371;-59
2022/12/14 10:22:20;;;;;;;12.13;6.17;;;;;;;3.80;100.00;94176.94;5091610;28;20192;-57
2022/12/14 10:24:49;;;;;;;11.13;6.00;;;;;;;3.92;100.00;94163.56;5072377;28;20221;-57
2022/12/14 10:27:26;;;;;;;11.83;6.93;;;;;;;3.91;100.00;94206.41;5088974;28;20255;-56
2022/12/14 10:30:00;;;;;;;10.73;5.60;;;;;;;4.12;100.00;94164.75;5090261;28;20297;-55
2022/12/14 10:32:35;;;;;;;11.23;6.37;;;;;;;4.33;100.00;94215.28;5091264;28;20249;-57
2022/12/14 10:35:13;;;;;;;10.07;5.93;;;;;;;4.38;100.00;94229.19;5089800;28;20289;-58
2022/12/14 10:37:44;;;;;;;12.43;6.30;;;;;;;4.48;100.00;94207.53;5088851;28;20188;-57
2022/12/14 10:40:09;;;;;;;10.87;6.00;;;;;;;4.46;100.00;94199.28;5090942;28;20219;-56
2022/12/14 10:42:59;;;;;;;13.40;6.47;;;;;;;4.54;100.00;94178.63;5090960;28;20206;-56
2022/12/14 10:45:40;;;;;;;11.17;6.03;;;;;;;4.61;100.00;94179.78;5091258;28;20764;-55
2022/12/14 10:48:23;;;;;;;10.30;5.93;;;;;;;4.75;100.00;94182.97;5090936;28;20224;-58
2022/12/14 10:50:59;;;;;;;13.10;6.00;;;;;;;4.67;100.00;94187.72;5099669;22;20608;-55
2022/12/14 10:53:43;;;;;;;10.83;7.33;;;;;;;4.65;100.00;94176.97;5090404;28;20211;-55
2022/12/14 10:56:19;;;;;;;9.30;6.13;;;;;;;4.71;100.00;94236.94;5091187;28;20643;-55
2022/12/14 10:59:17;;;;;;;8.50;5.70;;;;;;;4.81;100.00;94237.91;5090565;28;20224;-54
2022/12/14 11:01:45;;;;;;;11.70;5.83;;;;;;;4.81;100.00;94262.28;5088393;28;20194;-55
2022/12/14 11:04:30;;;;;;;12.70;5.93;;;;;;;4.75;100.00;94273.59;5088263;28;20231;-55
2022/12/14 11:07:06;;;;;;;10.43;6.00;;;;;;;4.64;100.00;94198.03;5039210;28;20251;-55
2022/12/14 11:09:32;;;;;;;9.37;5.60;;;;;;;4.81;100.00;94192.59;5073492;28;20217;-54
2022/12/14 11:12:06;;;;;;;16.50;6.27;;;;;;;4.77;100.00;94196.25;5093646;28;20254;-55
2022/12/14 11:14:32;;;;;;;9.90;6.30;;;;;;;4.68;100.00;94236.34;5094334;28;20219;-55
2022/12/14 11:16:58;;;;;;;10.23;6.10;;;;;;;4.71;100.00;94243.69;5093854;28;20195;-55
2022/12/14 11:19:25;;;;;;;10.47;6.00;;;;;;;4.61;100.00;94168.00;5093894;28;20217;-57
2022/12/14 11:22:06;;;;;;;9.37;5.50;;;;;;;4.60;100.00;94158.06;5075915;28;20183;-58
2022/12/14 11:24:34;;;;;;;16.10;6.20;;;;;;;4.81;100.00;94159.06;5101748;22;20222;-57
2022/12/14 11:27:02;;;;;;;10.43;6.77;;;;;;;4.93;100.00;94170.78;5091900;28;20721;-58
2022/12/14 11:29:35;;;;;;;13.07;6.17;;;;;;;4.94;100.00;94193.38;5092246;28;20277;-57
2022/12/14 11:32:03;;;;;;;11.30;5.87;;;;;;;4.91;100.00;94231.34;5094012;28;20683;-54
2022/12/14 11:34:40;;;;;;;9.07;6.10;;;;;;;4.84;100.00;94179.00;5094013;28;20233;-56
2022/12/14 11:37:18;;;;;;;7.33;5.07;;;;;;;4.90;100.00;94184.41;5093965;28;20193;-56
2022/12/14 11:39:49;;;;;;;10.27;5.87;;;;;;;5.00;100.00;94185.38;5093883;28;20282;-56
2022/12/14 11:42:20;;;;;;;10.37;4.97;;;;;;;5.13;100.00;94216.31;5094133;28;20212;-57
2022/12/14 11:44:48;;;;;;;6.60;4.60;;;;;;;5.04;100.00;94181.72;5093738;28;20677;-57
2022/12/14 11:47:24;;;;;;;9.33;5.70;;;;;;;5.02;100.00;94129.84;5093696;28;20666;-57
2022/12/14 11:49:55;;;;;;;9.20;5.67;;;;;;;5.03;100.00;94187.66;5094007;28;20212;-56
2022/12/14 11:52:35;;;;;;;10.87;5.87;;;;;;;5.01;100.00;94169.34;5093635;28;20211;-55
2022/12/14 11:55:01;;;;;;;9.40;6.03;;;;;;;5.13;100.00;94169.38;5093530;28;20202;-57
2022/12/14 11:57:31;;;;;;;6.40;5.20;;;;;;;5.01;100.00;94140.81;5091355;28;20187;-59
2022/12/14 12:00:32;;;;;;;9.80;4.90;;;;;;;5.03;100.00;94157.44;5091537;28;20215;-54